sensor_id;sensor_type;location;lat;lon;timestamp;P1;durP1;ratioP1;P2;durP2;ratioP2
78838;SDS011;68405;47.190;27.558;2024-01-10T00:26:25;7.50;;;3.60;;
78838;SDS011;68405;47.190;27.558;2024-01-10T00:29:02;12.10;;;4.50;;
78838;SDS011;68405;47.190;27.558;2024-01-10T02:33:46;9.00;;;4.60;;
78838;SDS011;68405;47.190;27.558;2024-01-10T02:36:17;9.90;;;5.50;;
78838;SDS011;68405;47.190;27.558;2024-01-10T02:38:49;9.00;;;4.20;;
78838;SDS011;68405;47.190;27.558;2024-01-10T02:41:29;7.00;;;3.70;;
78838;SDS011;68405;47.190;27.558;2024-01-10T02:58:09;8.60;;;4.10;;
78838;SDS011;68405;47.190;27.558;2024-01-10T03:00:42;12.90;;;5.50;;
78838;SDS011;68405;47.190;27.558;2024-01-10T03:11:48;11.40;;;5.00;;
78838;SDS011;68405;47.190;27.558;2024-01-10T04:06:25;9.00;;;5.30;;
78838;SDS011;68405;47.190;27.558;2024-01-10T04:17:42;9.20;;;4.50;;
78838;SDS011;68405;47.190;27.558;2024-01-10T04:22:48;10.00;;;4.20;;
78838;SDS011;68405;47.190;27.558;2024-01-10T04:25:22;9.20;;;5.50;;
78838;SDS011;68405;47.190;27.558;2024-01-10T04:27:54;11.00;;;4.70;;
78838;SDS011;68405;47.190;27.558;2024-01-10T04:30:24;5.60;;;3.60;;
78838;SDS011;68405;47.190;27.558;2024-01-10T04:32:58;12.10;;;6.00;;
78838;SDS011;68405;47.190;27.558;2024-01-10T04:35:30;7.70;;;3.80;;
78838;SDS011;68405;47.190;27.558;2024-01-10T04:43:43;5.90;;;3.70;;
78838;SDS011;68405;47.190;27.558;2024-01-10T05:17:58;6.30;;;3.30;;
78838;SDS011;68405;47.190;27.558;2024-01-10T05:20:30;10.00;;;4.90;;
78838;SDS011;68405;47.190;27.558;2024-01-10T06:27:59;10.20;;;4.30;;
78838;SDS011;68405;47.190;27.558;2024-01-10T06:30:50;10.00;;;5.00;;
78838;SDS011;68405;47.190;27.558;2024-01-10T06:33:20;6.30;;;4.10;;
78838;SDS011;68405;47.190;27.558;2024-01-10T06:35:55;10.80;;;5.50;;
78838;SDS011;68405;47.190;27.558;2024-01-10T06:41:22;13.00;;;7.00;;
78838;SDS011;68405;47.190;27.558;2024-01-10T06:47:00;20.90;;;10.70;;
78838;SDS011;68405;47.190;27.558;2024-01-10T06:49:35;24.10;;;12.90;;
78838;SDS011;68405;47.190;27.558;2024-01-10T06:52:08;26.80;;;13.00;;
78838;SDS011;68405;47.190;27.558;2024-01-10T06:54:43;23.50;;;13.20;;
78838;SDS011;68405;47.190;27.558;2024-01-10T06:57:16;28.10;;;15.60;;
78838;SDS011;68405;47.190;27.558;2024-01-10T06:59:47;17.80;;;11.90;;
78838;SDS011;68405;47.190;27.558;2024-01-10T07:02:17;23.40;;;15.30;;
78838;SDS011;68405;47.190;27.558;2024-01-10T07:04:47;20.60;;;13.60;;
78838;SDS011;68405;47.190;27.558;2024-01-10T07:07:18;18.60;;;13.10;;
78838;SDS011;68405;47.190;27.558;2024-01-10T07:09:51;23.80;;;16.40;;
78838;SDS011;68405;47.190;27.558;2024-01-10T07:12:20;25.90;;;18.50;;
78838;SDS011;68405;47.190;27.558;2024-01-10T07:14:49;21.10;;;15.30;;
78838;SDS011;68405;47.190;27.558;2024-01-10T07:17:18;21.20;;;15.00;;
78838;SDS011;68405;47.190;27.558;2024-01-10T07:19:49;19.50;;;14.90;;
78838;SDS011;68405;47.190;27.558;2024-01-10T07:22:20;22.80;;;17.50;;
78838;SDS011;68405;47.190;27.558;2024-01-10T07:25:02;20.80;;;15.50;;
78838;SDS011;68405;47.190;27.558;2024-01-10T07:27:32;20.10;;;16.10;;
78838;SDS011;68405;47.190;27.558;2024-01-10T07:30:04;25.30;;;19.80;;
78838;SDS011;68405;47.190;27.558;2024-01-10T07:32:40;20.80;;;17.10;;
78838;SDS011;68405;47.190;27.558;2024-01-10T07:35:09;19.00;;;15.30;;
78838;SDS011;68405;47.190;27.558;2024-01-10T07:37:41;17.80;;;15.20;;
78838;SDS011;68405;47.190;27.558;2024-01-10T07:40:11;19.30;;;15.40;;
78838;SDS011;68405;47.190;27.558;2024-01-10T07:42:44;17.80;;;15.00;;
78838;SDS011;68405;47.190;27.558;2024-01-10T07:45:15;19.50;;;16.30;;
78838;SDS011;68405;47.190;27.558;2024-01-10T07:47:44;17.60;;;14.80;;
78838;SDS011;68405;47.190;27.558;2024-01-10T07:50:14;16.70;;;14.80;;
78838;SDS011;68405;47.190;27.558;2024-01-10T07:52:43;20.60;;;17.50;;
78838;SDS011;68405;47.190;27.558;2024-01-10T07:55:13;20.50;;;17.20;;
78838;SDS011;68405;47.190;27.558;2024-01-10T07:57:42;20.90;;;17.30;;
78838;SDS011;68405;47.190;27.558;2024-01-10T08:00:12;19.60;;;17.00;;
78838;SDS011;68405;47.190;27.558;2024-01-10T08:02:43;20.70;;;17.50;;
78838;SDS011;68405;47.190;27.558;2024-01-10T08:05:12;19.60;;;16.80;;
78838;SDS011;68405;47.190;27.558;2024-01-10T08:07:41;21.10;;;16.80;;
78838;SDS011;68405;47.190;27.558;2024-01-10T08:10:10;20.00;;;16.90;;
78838;SDS011;68405;47.190;27.558;2024-01-10T08:12:40;17.80;;;15.80;;
78838;SDS011;68405;47.190;27.558;2024-01-10T08:15:10;22.10;;;19.70;;
78838;SDS011;68405;47.190;27.558;2024-01-10T08:17:39;20.50;;;17.40;;
78838;SDS011;68405;47.190;27.558;2024-01-10T08:20:11;20.30;;;18.10;;
78838;SDS011;68405;47.190;27.558;2024-01-10T08:22:56;21.00;;;18.70;;
78838;SDS011;68405;47.190;27.558;2024-01-10T08:25:25;19.30;;;16.40;;
78838;SDS011;68405;47.190;27.558;2024-01-10T08:27:54;19.70;;;16.50;;
78838;SDS011;68405;47.190;27.558;2024-01-10T08:30:24;20.30;;;18.20;;
78838;SDS011;68405;47.190;27.558;2024-01-10T08:32:53;20.60;;;18.40;;
78838;SDS011;68405;47.190;27.558;2024-01-10T08:35:23;18.40;;;16.50;;
78838;SDS011;68405;47.190;27.558;2024-01-10T08:37:53;16.60;;;14.20;;
78838;SDS011;68405;47.190;27.558;2024-01-10T08:40:22;16.20;;;14.50;;
78838;SDS011;68405;47.190;27.558;2024-01-10T08:42:52;17.00;;;15.10;;
78838;SDS011;68405;47.190;27.558;2024-01-10T08:45:22;19.20;;;16.70;;
78838;SDS011;68405;47.190;27.558;2024-01-10T08:47:51;14.90;;;13.30;;
78838;SDS011;68405;47.190;27.558;2024-01-10T08:50:22;14.20;;;12.50;;
78838;SDS011;68405;47.190;27.558;2024-01-10T08:52:54;14.50;;;13.00;;
78838;SDS011;68405;47.190;27.558;2024-01-10T08:56:08;16.90;;;15.10;;
78838;SDS011;68405;47.190;27.558;2024-01-10T09:02:18;16.80;;;15.10;;
78838;SDS011;68405;47.190;27.558;2024-01-10T09:04:52;17.00;;;14.90;;
78838;SDS011;68405;47.190;27.558;2024-01-10T09:07:43;18.00;;;16.10;;
78838;SDS011;68405;47.190;27.558;2024-01-10T09:12:43;33.10;;;26.50;;
78838;SDS011;68405;47.190;27.558;2024-01-10T09:15:13;18.10;;;16.20;;
78838;SDS011;68405;47.190;27.558;2024-01-10T09:17:42;16.50;;;14.90;;
78838;SDS011;68405;47.190;27.558;2024-01-10T09:20:12;17.90;;;16.10;;
78838;SDS011;68405;47.190;27.558;2024-01-10T09:22:42;16.10;;;14.40;;
78838;SDS011;68405;47.190;27.558;2024-01-10T09:25:11;16.10;;;14.40;;
78838;SDS011;68405;47.190;27.558;2024-01-10T09:27:41;15.20;;;13.60;;
78838;SDS011;68405;47.190;27.558;2024-01-10T09:30:12;16.90;;;14.50;;
78838;SDS011;68405;47.190;27.558;2024-01-10T09:32:43;18.10;;;16.30;;
78838;SDS011;68405;47.190;27.558;2024-01-10T09:35:12;20.60;;;18.40;;
78838;SDS011;68405;47.190;27.558;2024-01-10T09:37:41;19.60;;;17.50;;
78838;SDS011;68405;47.190;27.558;2024-01-10T09:40:12;23.30;;;20.90;;
78838;SDS011;68405;47.190;27.558;2024-01-10T09:42:44;23.20;;;20.80;;
78838;SDS011;68405;47.190;27.558;2024-01-10T09:45:17;25.80;;;23.20;;
78838;SDS011;68405;47.190;27.558;2024-01-10T09:47:49;26.60;;;23.80;;
78838;SDS011;68405;47.190;27.558;2024-01-10T09:50:22;25.50;;;22.60;;
78838;SDS011;68405;47.190;27.558;2024-01-10T09:52:53;25.40;;;22.80;;
78838;SDS011;68405;47.190;27.558;2024-01-10T09:55:28;22.90;;;20.60;;
78838;SDS011;68405;47.190;27.558;2024-01-10T09:58:02;20.30;;;17.40;;
78838;SDS011;68405;47.190;27.558;2024-01-10T10:00:32;18.40;;;16.40;;
78838;SDS011;68405;47.190;27.558;2024-01-10T10:03:02;19.40;;;17.10;;
78838;SDS011;68405;47.190;27.558;2024-01-10T10:05:35;26.30;;;23.70;;
78838;SDS011;68405;47.190;27.558;2024-01-10T10:08:06;26.80;;;23.50;;
78838;SDS011;68405;47.190;27.558;2024-01-10T10:10:38;23.10;;;20.70;;
78838;SDS011;68405;47.190;27.558;2024-01-10T10:13:11;22.50;;;20.20;;
78838;SDS011;68405;47.190;27.558;2024-01-10T10:15:59;16.50;;;14.30;;
78838;SDS011;68405;47.190;27.558;2024-01-10T10:18:29;22.30;;;19.40;;
78838;SDS011;68405;47.190;27.558;2024-01-10T10:21:08;22.80;;;20.40;;
78838;SDS011;68405;47.190;27.558;2024-01-10T10:26:11;26.00;;;23.00;;
78838;SDS011;68405;47.190;27.558;2024-01-10T10:36:59;24.60;;;22.00;;
78838;SDS011;68405;47.190;27.558;2024-01-10T10:41:59;23.50;;;20.70;;
78838;SDS011;68405;47.190;27.558;2024-01-10T10:44:30;22.70;;;18.40;;
78838;SDS011;68405;47.190;27.558;2024-01-10T10:47:05;21.40;;;19.20;;
78838;SDS011;68405;47.190;27.558;2024-01-10T10:49:40;23.60;;;19.70;;
78838;SDS011;68405;47.190;27.558;2024-01-10T10:52:16;18.90;;;15.60;;
78838;SDS011;68405;47.190;27.558;2024-01-10T10:54:51;22.00;;;19.50;;
78838;SDS011;68405;47.190;27.558;2024-01-10T10:57:26;19.50;;;16.30;;
78838;SDS011;68405;47.190;27.558;2024-01-10T10:59:56;20.50;;;17.80;;
78838;SDS011;68405;47.190;27.558;2024-01-10T11:02:48;21.40;;;16.00;;
78838;SDS011;68405;47.190;27.558;2024-01-10T11:05:18;21.10;;;16.90;;
78838;SDS011;68405;47.190;27.558;2024-01-10T11:07:51;20.50;;;17.60;;
78838;SDS011;68405;47.190;27.558;2024-01-10T11:10:27;20.40;;;15.90;;
78838;SDS011;68405;47.190;27.558;2024-01-10T11:13:03;16.90;;;14.40;;
78838;SDS011;68405;47.190;27.558;2024-01-10T11:18:58;17.00;;;14.50;;
78838;SDS011;68405;47.190;27.558;2024-01-10T11:21:53;18.80;;;15.10;;
78838;SDS011;68405;47.190;27.558;2024-01-10T11:24:34;18.40;;;15.70;;
78838;SDS011;68405;47.190;27.558;2024-01-10T11:27:11;19.80;;;14.10;;
78838;SDS011;68405;47.190;27.558;2024-01-10T11:29:47;16.00;;;12.10;;
78838;SDS011;68405;47.190;27.558;2024-01-10T11:32:19;16.40;;;12.80;;
78838;SDS011;68405;47.190;27.558;2024-01-10T11:34:56;15.10;;;11.90;;
78838;SDS011;68405;47.190;27.558;2024-01-10T11:37:31;16.00;;;11.60;;
78838;SDS011;68405;47.190;27.558;2024-01-10T11:40:11;16.50;;;12.30;;
78838;SDS011;68405;47.190;27.558;2024-01-10T11:43:09;15.70;;;12.10;;
78838;SDS011;68405;47.190;27.558;2024-01-10T11:45:54;16.90;;;12.50;;
78838;SDS011;68405;47.190;27.558;2024-01-10T11:48:27;17.00;;;11.40;;
78838;SDS011;68405;47.190;27.558;2024-01-10T11:51:00;15.50;;;11.60;;
78838;SDS011;68405;47.190;27.558;2024-01-10T11:53:40;16.30;;;12.20;;
78838;SDS011;68405;47.190;27.558;2024-01-10T11:56:16;18.00;;;10.90;;
78838;SDS011;68405;47.190;27.558;2024-01-10T11:58:59;16.40;;;11.30;;
78838;SDS011;68405;47.190;27.558;2024-01-10T12:01:33;18.50;;;12.90;;
78838;SDS011;68405;47.190;27.558;2024-01-10T12:04:03;18.10;;;13.40;;
78838;SDS011;68405;47.190;27.558;2024-01-10T12:06:37;18.60;;;13.70;;
78838;SDS011;68405;47.190;27.558;2024-01-10T12:09:06;17.80;;;12.40;;
78838;SDS011;68405;47.190;27.558;2024-01-10T12:11:37;18.90;;;11.50;;
78838;SDS011;68405;47.190;27.558;2024-01-10T12:14:11;17.80;;;12.00;;
78838;SDS011;68405;47.190;27.558;2024-01-10T12:16:41;17.00;;;11.60;;
78838;SDS011;68405;47.190;27.558;2024-01-10T12:19:11;19.20;;;11.70;;
78838;SDS011;68405;47.190;27.558;2024-01-10T12:21:39;15.90;;;10.90;;
78838;SDS011;68405;47.190;27.558;2024-01-10T12:24:11;17.80;;;10.90;;
78838;SDS011;68405;47.190;27.558;2024-01-10T12:26:44;17.10;;;11.50;;
78838;SDS011;68405;47.190;27.558;2024-01-10T12:29:17;18.30;;;11.90;;
78838;SDS011;68405;47.190;27.558;2024-01-10T12:31:47;15.30;;;11.30;;
78838;SDS011;68405;47.190;27.558;2024-01-10T12:34:17;14.80;;;9.90;;
78838;SDS011;68405;47.190;27.558;2024-01-10T12:36:48;17.00;;;11.60;;
78838;SDS011;68405;47.190;27.558;2024-01-10T12:39:22;20.30;;;13.90;;
78838;SDS011;68405;47.190;27.558;2024-01-10T12:41:52;18.30;;;12.70;;
78838;SDS011;68405;47.190;27.558;2024-01-10T12:44:21;21.50;;;15.00;;
78838;SDS011;68405;47.190;27.558;2024-01-10T12:46:50;22.20;;;15.30;;
78838;SDS011;68405;47.190;27.558;2024-01-10T12:49:23;21.40;;;14.70;;
78838;SDS011;68405;47.190;27.558;2024-01-10T12:51:53;24.70;;;15.50;;
78838;SDS011;68405;47.190;27.558;2024-01-10T12:54:23;27.30;;;18.70;;
78838;SDS011;68405;47.190;27.558;2024-01-10T12:56:52;27.50;;;19.20;;
78838;SDS011;68405;47.190;27.558;2024-01-10T12:59:22;25.00;;;16.50;;
78838;SDS011;68405;47.190;27.558;2024-01-10T13:01:51;31.50;;;21.00;;
78838;SDS011;68405;47.190;27.558;2024-01-10T13:04:20;30.20;;;20.40;;
78838;SDS011;68405;47.190;27.558;2024-01-10T13:06:52;31.20;;;21.10;;
78838;SDS011;68405;47.190;27.558;2024-01-10T13:09:45;31.60;;;19.30;;
78838;SDS011;68405;47.190;27.558;2024-01-10T13:12:17;32.30;;;18.50;;
78838;SDS011;68405;47.190;27.558;2024-01-10T13:14:49;29.70;;;17.90;;
78838;SDS011;68405;47.190;27.558;2024-01-10T13:17:20;26.00;;;16.80;;
78838;SDS011;68405;47.190;27.558;2024-01-10T13:19:49;22.20;;;14.80;;
78838;SDS011;68405;47.190;27.558;2024-01-10T13:25:07;18.50;;;11.10;;
78838;SDS011;68405;47.190;27.558;2024-01-10T13:27:37;20.60;;;14.60;;
78838;SDS011;68405;47.190;27.558;2024-01-10T13:30:10;22.20;;;13.50;;
78838;SDS011;68405;47.190;27.558;2024-01-10T13:32:40;29.70;;;16.60;;
78838;SDS011;68405;47.190;27.558;2024-01-10T13:35:09;23.80;;;14.50;;
78838;SDS011;68405;47.190;27.558;2024-01-10T13:37:39;24.20;;;13.90;;
78838;SDS011;68405;47.190;27.558;2024-01-10T13:40:09;22.90;;;14.10;;
78838;SDS011;68405;47.190;27.558;2024-01-10T13:42:40;26.20;;;13.50;;
78838;SDS011;68405;47.190;27.558;2024-01-10T13:45:10;20.10;;;12.30;;
78838;SDS011;68405;47.190;27.558;2024-01-10T13:47:43;22.50;;;12.90;;
78838;SDS011;68405;47.190;27.558;2024-01-10T13:50:12;25.80;;;13.60;;
78838;SDS011;68405;47.190;27.558;2024-01-10T13:52:41;26.40;;;14.00;;
78838;SDS011;68405;47.190;27.558;2024-01-10T13:55:10;19.80;;;12.50;;
78838;SDS011;68405;47.190;27.558;2024-01-10T13:57:39;22.00;;;12.60;;
78838;SDS011;68405;47.190;27.558;2024-01-10T14:00:09;24.40;;;13.30;;
78838;SDS011;68405;47.190;27.558;2024-01-10T14:02:41;27.30;;;14.70;;
78838;SDS011;68405;47.190;27.558;2024-01-10T14:05:10;25.80;;;13.60;;
78838;SDS011;68405;47.190;27.558;2024-01-10T14:07:39;28.90;;;14.00;;
78838;SDS011;68405;47.190;27.558;2024-01-10T14:10:10;23.00;;;13.80;;
78838;SDS011;68405;47.190;27.558;2024-01-10T14:12:39;22.50;;;12.90;;
78838;SDS011;68405;47.190;27.558;2024-01-10T14:15:09;25.00;;;14.20;;
78838;SDS011;68405;47.190;27.558;2024-01-10T14:17:37;27.10;;;14.80;;
78838;SDS011;68405;47.190;27.558;2024-01-10T14:20:07;26.30;;;13.00;;
78838;SDS011;68405;47.190;27.558;2024-01-10T14:22:37;25.90;;;13.60;;
78838;SDS011;68405;47.190;27.558;2024-01-10T14:25:08;27.40;;;13.70;;
78838;SDS011;68405;47.190;27.558;2024-01-10T14:27:38;23.40;;;13.30;;
78838;SDS011;68405;47.190;27.558;2024-01-10T14:30:07;27.60;;;14.10;;
78838;SDS011;68405;47.190;27.558;2024-01-10T14:32:36;29.50;;;15.30;;
78838;SDS011;68405;47.190;27.558;2024-01-10T14:35:06;26.90;;;13.90;;
78838;SDS011;68405;47.190;27.558;2024-01-10T14:37:35;28.10;;;14.90;;
78838;SDS011;68405;47.190;27.558;2024-01-10T14:40:05;23.50;;;13.40;;
78838;SDS011;68405;47.190;27.558;2024-01-10T14:42:34;18.00;;;10.30;;
78838;SDS011;68405;47.190;27.558;2024-01-10T14:45:04;18.90;;;10.80;;
78838;SDS011;68405;47.190;27.558;2024-01-10T14:47:35;25.80;;;14.10;;
78838;SDS011;68405;47.190;27.558;2024-01-10T14:50:07;27.60;;;14.80;;
78838;SDS011;68405;47.190;27.558;2024-01-10T14:55:30;20.30;;;10.30;;
78838;SDS011;68405;47.190;27.558;2024-01-10T14:57:59;26.90;;;13.30;;
78838;SDS011;68405;47.190;27.558;2024-01-10T15:00:28;24.10;;;11.90;;
78838;SDS011;68405;47.190;27.558;2024-01-10T15:02:57;21.40;;;11.30;;
78838;SDS011;68405;47.190;27.558;2024-01-10T15:05:25;29.90;;;14.40;;
78838;SDS011;68405;47.190;27.558;2024-01-10T15:07:54;20.90;;;12.20;;
78838;SDS011;68405;47.190;27.558;2024-01-10T15:10:23;16.30;;;8.90;;
78838;SDS011;68405;47.190;27.558;2024-01-10T15:12:52;23.30;;;11.20;;
78838;SDS011;68405;47.190;27.558;2024-01-10T15:15:21;19.10;;;9.50;;
78838;SDS011;68405;47.190;27.558;2024-01-10T15:17:50;19.60;;;10.30;;
78838;SDS011;68405;47.190;27.558;2024-01-10T15:20:19;16.60;;;9.10;;
78838;SDS011;68405;47.190;27.558;2024-01-10T15:22:49;17.40;;;8.40;;
78838;SDS011;68405;47.190;27.558;2024-01-10T15:25:18;14.40;;;8.00;;
78838;SDS011;68405;47.190;27.558;2024-01-10T15:27:50;12.90;;;7.30;;
78838;SDS011;68405;47.190;27.558;2024-01-10T15:30:33;14.20;;;7.60;;
78838;SDS011;68405;47.190;27.558;2024-01-10T15:33:02;17.90;;;8.80;;
78838;SDS011;68405;47.190;27.558;2024-01-10T15:35:32;12.70;;;7.30;;
78838;SDS011;68405;47.190;27.558;2024-01-10T15:38:00;14.20;;;7.40;;
78838;SDS011;68405;47.190;27.558;2024-01-10T15:40:30;12.70;;;7.40;;
78838;SDS011;68405;47.190;27.558;2024-01-10T15:45:26;9.30;;;5.10;;
78838;SDS011;68405;47.190;27.558;2024-01-10T15:47:55;10.70;;;5.50;;
78838;SDS011;68405;47.190;27.558;2024-01-10T15:50:27;20.00;;;9.40;;
78838;SDS011;68405;47.190;27.558;2024-01-10T15:52:57;13.50;;;7.00;;
78838;SDS011;68405;47.190;27.558;2024-01-10T15:55:28;17.10;;;7.70;;
78838;SDS011;68405;47.190;27.558;2024-01-10T15:58:07;13.90;;;7.10;;
78838;SDS011;68405;47.190;27.558;2024-01-10T16:00:51;19.10;;;8.50;;
78838;SDS011;68405;47.190;27.558;2024-01-10T16:03:20;25.20;;;12.20;;
78838;SDS011;68405;47.190;27.558;2024-01-10T16:05:50;17.80;;;9.50;;
78838;SDS011;68405;47.190;27.558;2024-01-10T16:08:20;16.30;;;9.00;;
78838;SDS011;68405;47.190;27.558;2024-01-10T16:10:50;13.20;;;6.90;;
78838;SDS011;68405;47.190;27.558;2024-01-10T16:13:20;17.50;;;8.00;;
78838;SDS011;68405;47.190;27.558;2024-01-10T16:15:50;13.10;;;8.10;;
78838;SDS011;68405;47.190;27.558;2024-01-10T16:18:25;14.80;;;8.10;;
78838;SDS011;68405;47.190;27.558;2024-01-10T16:20:54;17.90;;;8.40;;
78838;SDS011;68405;47.190;27.558;2024-01-10T16:23:25;13.90;;;7.90;;
78838;SDS011;68405;47.190;27.558;2024-01-10T16:25:54;15.60;;;6.80;;
78838;SDS011;68405;47.190;27.558;2024-01-10T16:28:24;13.50;;;6.80;;
78838;SDS011;68405;47.190;27.558;2024-01-10T16:31:00;13.00;;;7.30;;
78838;SDS011;68405;47.190;27.558;2024-01-10T16:33:34;12.60;;;6.20;;
78838;SDS011;68405;47.190;27.558;2024-01-10T16:36:04;15.30;;;7.80;;
78838;SDS011;68405;47.190;27.558;2024-01-10T16:38:37;12.20;;;6.30;;
78838;SDS011;68405;47.190;27.558;2024-01-10T16:41:11;13.10;;;6.40;;
78838;SDS011;68405;47.190;27.558;2024-01-10T16:43:41;8.60;;;5.20;;
78838;SDS011;68405;47.190;27.558;2024-01-10T16:46:11;13.00;;;6.20;;
78838;SDS011;68405;47.190;27.558;2024-01-10T16:48:45;7.00;;;4.60;;
78838;SDS011;68405;47.190;27.558;2024-01-10T16:51:18;15.50;;;5.70;;
78838;SDS011;68405;47.190;27.558;2024-01-10T16:53:52;7.40;;;4.30;;
78838;SDS011;68405;47.190;27.558;2024-01-10T16:56:21;9.90;;;5.00;;
78838;SDS011;68405;47.190;27.558;2024-01-10T16:58:50;11.80;;;5.60;;
78838;SDS011;68405;47.190;27.558;2024-01-10T17:01:19;9.30;;;4.60;;
78838;SDS011;68405;47.190;27.558;2024-01-10T17:03:48;11.30;;;5.70;;
78838;SDS011;68405;47.190;27.558;2024-01-10T17:06:20;10.80;;;6.10;;
78838;SDS011;68405;47.190;27.558;2024-01-10T17:08:49;16.30;;;8.00;;
78838;SDS011;68405;47.190;27.558;2024-01-10T17:11:19;8.90;;;4.90;;
78838;SDS011;68405;47.190;27.558;2024-01-10T17:13:48;11.50;;;6.30;;
78838;SDS011;68405;47.190;27.558;2024-01-10T17:18:45;8.00;;;2.80;;
78838;SDS011;68405;47.190;27.558;2024-01-10T17:21:14;9.80;;;4.60;;
78838;SDS011;68405;47.190;27.558;2024-01-10T17:23:45;8.20;;;3.30;;
78838;SDS011;68405;47.190;27.558;2024-01-10T17:26:14;4.10;;;2.30;;
78838;SDS011;68405;47.190;27.558;2024-01-10T17:28:43;3.40;;;2.20;;
78838;SDS011;68405;47.190;27.558;2024-01-10T17:31:12;5.90;;;3.30;;
78838;SDS011;68405;47.190;27.558;2024-01-10T17:33:40;6.40;;;3.80;;
78838;SDS011;68405;47.190;27.558;2024-01-10T17:36:09;9.20;;;4.00;;
78838;SDS011;68405;47.190;27.558;2024-01-10T17:38:38;8.30;;;4.00;;
78838;SDS011;68405;47.190;27.558;2024-01-10T17:41:07;7.90;;;3.80;;
78838;SDS011;68405;47.190;27.558;2024-01-10T17:43:36;7.60;;;3.20;;
78838;SDS011;68405;47.190;27.558;2024-01-10T17:46:05;7.80;;;3.60;;
78838;SDS011;68405;47.190;27.558;2024-01-10T17:48:34;4.60;;;2.80;;
78838;SDS011;68405;47.190;27.558;2024-01-10T17:51:04;7.10;;;3.60;;
78838;SDS011;68405;47.190;27.558;2024-01-10T17:53:38;9.50;;;3.60;;
78838;SDS011;68405;47.190;27.558;2024-01-10T17:56:07;3.90;;;2.80;;
78838;SDS011;68405;47.190;27.558;2024-01-10T17:58:36;6.90;;;3.30;;
78838;SDS011;68405;47.190;27.558;2024-01-10T18:01:05;4.90;;;3.20;;
78838;SDS011;68405;47.190;27.558;2024-01-10T18:03:34;6.90;;;3.50;;
78838;SDS011;68405;47.190;27.558;2024-01-10T18:06:03;5.50;;;3.40;;
78838;SDS011;68405;47.190;27.558;2024-01-10T18:08:33;5.60;;;3.20;;
78838;SDS011;68405;47.190;27.558;2024-01-10T18:11:16;7.90;;;3.30;;
78838;SDS011;68405;47.190;27.558;2024-01-10T18:13:53;8.30;;;4.60;;
78838;SDS011;68405;47.190;27.558;2024-01-10T18:16:30;7.00;;;3.90;;
78838;SDS011;68405;47.190;27.558;2024-01-10T18:19:02;6.80;;;4.30;;
78838;SDS011;68405;47.190;27.558;2024-01-10T18:21:46;8.40;;;4.00;;
78838;SDS011;68405;47.190;27.558;2024-01-10T18:24:18;3.50;;;3.10;;
78838;SDS011;68405;47.190;27.558;2024-01-10T18:26:48;8.90;;;3.50;;
78838;SDS011;68405;47.190;27.558;2024-01-10T18:29:17;8.20;;;5.00;;
78838;SDS011;68405;47.190;27.558;2024-01-10T18:31:47;10.00;;;5.50;;
78838;SDS011;68405;47.190;27.558;2024-01-10T18:34:18;15.70;;;6.90;;
78838;SDS011;68405;47.190;27.558;2024-01-10T18:40:00;11.30;;;5.80;;
78838;SDS011;68405;47.190;27.558;2024-01-10T18:42:30;10.30;;;4.80;;
78838;SDS011;68405;47.190;27.558;2024-01-10T18:44:59;12.00;;;5.30;;
78838;SDS011;68405;47.190;27.558;2024-01-10T18:49:56;10.00;;;4.70;;
78838;SDS011;68405;47.190;27.558;2024-01-10T18:52:25;8.30;;;6.20;;
78838;SDS011;68405;47.190;27.558;2024-01-10T18:54:55;10.60;;;4.90;;
78838;SDS011;68405;47.190;27.558;2024-01-10T18:57:24;11.00;;;4.80;;
78838;SDS011;68405;47.190;27.558;2024-01-10T19:04:51;8.00;;;4.30;;
78838;SDS011;68405;47.190;27.558;2024-01-10T19:07:22;14.80;;;8.10;;
78838;SDS011;68405;47.190;27.558;2024-01-10T19:12:20;10.60;;;6.20;;
78838;SDS011;68405;47.190;27.558;2024-01-10T19:14:50;13.80;;;6.60;;
78838;SDS011;68405;47.190;27.558;2024-01-10T19:17:20;12.80;;;7.10;;
78838;SDS011;68405;47.190;27.558;2024-01-10T19:19:51;7.20;;;3.70;;
78838;SDS011;68405;47.190;27.558;2024-01-10T19:22:20;9.10;;;5.20;;
78838;SDS011;68405;47.190;27.558;2024-01-10T19:24:54;9.10;;;4.90;;
78838;SDS011;68405;47.190;27.558;2024-01-10T19:27:23;8.50;;;5.20;;
78838;SDS011;68405;47.190;27.558;2024-01-10T19:29:53;6.20;;;4.10;;
78838;SDS011;68405;47.190;27.558;2024-01-10T19:32:21;8.10;;;4.50;;
78838;SDS011;68405;47.190;27.558;2024-01-10T19:34:50;11.00;;;4.60;;
78838;SDS011;68405;47.190;27.558;2024-01-10T19:37:19;8.90;;;5.60;;
78838;SDS011;68405;47.190;27.558;2024-01-10T19:39:49;11.20;;;6.60;;
78838;SDS011;68405;47.190;27.558;2024-01-10T19:42:18;13.10;;;6.70;;
78838;SDS011;68405;47.190;27.558;2024-01-10T19:44:47;11.80;;;6.70;;
78838;SDS011;68405;47.190;27.558;2024-01-10T19:47:17;15.00;;;8.10;;
78838;SDS011;68405;47.190;27.558;2024-01-10T19:49:46;18.90;;;9.50;;
78838;SDS011;68405;47.190;27.558;2024-01-10T19:52:15;15.50;;;8.70;;
78838;SDS011;68405;47.190;27.558;2024-01-10T19:54:44;15.70;;;7.80;;
78838;SDS011;68405;47.190;27.558;2024-01-10T19:57:12;17.20;;;9.80;;
78838;SDS011;68405;47.190;27.558;2024-01-10T19:59:41;15.90;;;7.70;;
78838;SDS011;68405;47.190;27.558;2024-01-10T20:02:11;19.90;;;11.30;;
78838;SDS011;68405;47.190;27.558;2024-01-10T20:04:48;20.70;;;10.00;;
78838;SDS011;68405;47.190;27.558;2024-01-10T20:07:16;18.80;;;9.60;;
78838;SDS011;68405;47.190;27.558;2024-01-10T20:09:46;18.50;;;9.20;;
78838;SDS011;68405;47.190;27.558;2024-01-10T20:12:19;11.00;;;6.20;;
78838;SDS011;68405;47.190;27.558;2024-01-10T20:14:48;14.70;;;8.80;;
78838;SDS011;68405;47.190;27.558;2024-01-10T20:17:17;13.30;;;8.40;;
78838;SDS011;68405;47.190;27.558;2024-01-10T20:19:46;17.20;;;8.30;;
78838;SDS011;68405;47.190;27.558;2024-01-10T20:22:15;17.20;;;8.80;;
78838;SDS011;68405;47.190;27.558;2024-01-10T20:24:44;15.00;;;7.90;;
78838;SDS011;68405;47.190;27.558;2024-01-10T20:27:13;14.00;;;7.30;;
78838;SDS011;68405;47.190;27.558;2024-01-10T20:29:42;10.60;;;6.30;;
78838;SDS011;68405;47.190;27.558;2024-01-10T20:32:14;12.60;;;6.40;;
78838;SDS011;68405;47.190;27.558;2024-01-10T20:34:42;15.00;;;7.80;;
78838;SDS011;68405;47.190;27.558;2024-01-10T20:37:14;10.40;;;6.50;;
78838;SDS011;68405;47.190;27.558;2024-01-10T20:39:43;15.80;;;7.90;;
78838;SDS011;68405;47.190;27.558;2024-01-10T20:42:12;13.50;;;8.10;;
78838;SDS011;68405;47.190;27.558;2024-01-10T20:44:41;16.60;;;8.00;;
78838;SDS011;68405;47.190;27.558;2024-01-10T20:47:11;14.00;;;8.00;;
78838;SDS011;68405;47.190;27.558;2024-01-10T20:49:46;13.80;;;6.90;;
78838;SDS011;68405;47.190;27.558;2024-01-10T20:52:14;16.90;;;7.80;;
78838;SDS011;68405;47.190;27.558;2024-01-10T20:54:43;12.00;;;7.10;;
78838;SDS011;68405;47.190;27.558;2024-01-10T20:57:12;11.80;;;6.80;;
78838;SDS011;68405;47.190;27.558;2024-01-10T21:02:09;8.10;;;4.50;;
78838;SDS011;68405;47.190;27.558;2024-01-10T21:04:38;11.20;;;5.90;;
78838;SDS011;68405;47.190;27.558;2024-01-10T21:07:07;13.20;;;6.00;;
78838;SDS011;68405;47.190;27.558;2024-01-10T21:09:36;15.40;;;7.60;;
78838;SDS011;68405;47.190;27.558;2024-01-10T21:12:06;16.90;;;7.60;;